Time;durP1;ratioP1;P1;durP2;ratioP2;P2;SDS_P1;SDS_P2;PMS_P1;PMS_P2;Temp;Humidity;BMP_temperature;BMP_pressure;BME280_temperature;BME280_humidity;BME280_pressure;Samples;Min_cycle;Max_cycle;Signal;HPM_P1;HPM_P2
2022/04/09 00:02:23;;;;;;;9.07;5.10;;;4.80;99.90;;;;;;4736102;28;10000675;-74
2022/04/09 00:04:49;;;;;;;12.63;5.32;;;4.70;99.90;;;;;;5093026;28;20061;-74
2022/04/09 00:07:15;;;;;;;8.95;5.68;;;4.70;99.90;;;;;;5087495;28;20063;-74
2022/04/09 00:09:41;;;;;;;9.65;5.53;;;4.60;99.90;;;;;;5087850;28;20049;-74
2022/04/09 00:12:08;;;;;;;9.35;5.50;;;4.60;99.90;;;;;;5086783;28;20080;-74
2022/04/09 00:14:34;;;;;;;11.35;5.45;;;4.60;99.90;;;;;;5088392;28;20058;-74
2022/04/09 00:16:59;;;;;;;10.55;5.35;;;4.60;99.90;;;;;;5092798;28;20058;-74
2022/04/09 00:19:25;;;;;;;12.30;5.80;;;4.60;99.90;;;;;;5088763;28;20491;-74
2022/04/09 00:21:51;;;;;;;14.90;5.22;;;4.60;99.90;;;;;;5089450;28;20024;-74
2022/04/09 00:24:16;;;;;;;8.93;4.30;;;4.60;99.90;;;;;;5088912;28;20122;-74
2022/04/09 00:26:42;;;;;;;7.15;3.53;;;4.60;99.90;;;;;;5084874;28;20035;-75
2022/04/09 00:29:08;;;;;;;9.73;4.05;;;4.60;99.90;;;;;;5092838;28;20048;-74
2022/04/09 00:31:34;;;;;;;7.15;3.97;;;4.60;99.90;;;;;;5096281;28;20527;-74
2022/04/09 00:34:00;;;;;;;16.30;5.10;;;4.60;99.90;;;;;;5084585;28;20024;-74
2022/04/09 00:36:26;;;;;;;7.35;3.33;;;4.60;99.90;;;;;;5093428;28;20131;-74
2022/04/09 00:38:51;;;;;;;8.65;3.42;;;4.60;99.90;;;;;;5094666;28;20115;-74
2022/04/09 00:41:18;;;;;;;7.25;2.75;;;4.60;99.90;;;;;;5086877;28;20026;-74
2022/04/09 00:43:43;;;;;;;10.68;2.85;;;4.60;99.90;;;;;;5097185;28;20023;-74
2022/04/09 00:46:14;;;;;;;8.48;2.72;;;4.60;99.90;;;;;;5093298;28;20510;-74
2022/04/09 00:48:41;;;;;;;11.05;2.72;;;4.70;99.90;;;;;;5087690;28;20028;-74
2022/04/09 00:51:07;;;;;;;8.98;2.60;;;4.70;99.90;;;;;;5094895;28;20709;-74
2022/04/09 00:53:35;;;;;;;8.88;2.63;;;4.70;99.90;;;;;;5093610;28;20038;-74
2022/04/09 00:56:15;;;;;;;13.68;3.40;;;4.70;99.90;;;;;;5086827;28;20035;-74
2022/04/09 00:58:48;;;;;;;8.18;2.65;;;4.60;99.90;;;;;;5087760;28;20468;-74
2022/04/09 01:01:14;;;;;;;9.18;1.92;;;4.60;99.90;;;;;;5093153;28;20083;-74
2022/04/09 01:03:41;;;;;;;14.60;3.00;;;4.60;99.90;;;;;;5093261;28;20028;-74
2022/04/09 01:06:08;;;;;;;13.43;2.88;;;4.50;99.90;;;;;;5092955;28;20058;-74
2022/04/09 01:08:34;;;;;;;10.30;2.75;;;4.50;99.90;;;;;;5098697;28;20032;-74
2022/04/09 01:11:00;;;;;;;15.07;3.47;;;4.40;99.90;;;;;;5092222;28;20088;-74
2022/04/09 01:13:25;;;;;;;12.75;2.67;;;4.40;99.90;;;;;;5089218;28;20032;-74
2022/04/09 01:15:51;;;;;;;15.23;2.90;;;4.30;99.90;;;;;;5091918;28;20024;-74
2022/04/09 01:18:17;;;;;;;13.88;3.47;;;4.30;99.90;;;;;;5107312;28;20552;-74
2022/04/09 01:20:43;;;;;;;10.85;3.00;;;4.30;99.90;;;;;;5091345;28;20074;-74
2022/04/09 01:23:09;;;;;;;11.30;3.33;;;4.20;99.90;;;;;;5097203;28;20031;-74
2022/04/09 01:25:35;;;;;;;10.45;2.80;;;4.20;99.90;;;;;;5091669;28;20030;-74
2022/04/09 01:28:01;;;;;;;12.63;3.08;;;4.20;99.90;;;;;;5092378;28;20458;-74
2022/04/09 01:30:27;;;;;;;11.95;2.88;;;4.10;99.90;;;;;;5093949;28;20036;-74
2022/04/09 01:32:52;;;;;;;8.13;2.58;;;4.10;99.90;;;;;;5090426;28;20039;-74
2022/04/09 01:35:18;;;;;;;11.15;3.00;;;4.00;99.90;;;;;;5093035;28;20019;-74
2022/04/09 01:37:44;;;;;;;13.43;2.83;;;4.00;99.90;;;;;;5097570;28;20373;-74
2022/04/09 01:40:10;;;;;;;12.45;2.55;;;4.00;99.90;;;;;;5092094;28;20054;-74
2022/04/09 01:42:36;;;;;;;9.68;2.60;;;4.00;99.90;;;;;;5098838;28;20019;-74
2022/04/09 01:45:03;;;;;;;9.10;2.65;;;4.00;99.90;;;;;;5089517;28;20031;-74
2022/04/09 01:47:29;;;;;;;7.40;2.33;;;4.00;99.90;;;;;;5093625;28;20057;-74
2022/04/09 01:49:55;;;;;;;11.63;3.28;;;3.90;99.90;;;;;;5100641;28;20498;-74
2022/04/09 01:52:20;;;;;;;9.30;2.40;;;3.90;99.90;;;;;;5096974;28;20031;-74
2022/04/09 01:54:46;;;;;;;7.97;1.95;;;3.90;99.90;;;;;;5087918;28;20123;-74
2022/04/09 01:57:11;;;;;;;10.90;2.60;;;3.90;99.90;;;;;;5092446;28;20028;-74
2022/04/09 01:59:37;;;;;;;12.80;2.63;;;3.90;99.90;;;;;;5096671;28;20233;-74
2022/04/09 02:02:03;;;;;;;10.20;2.45;;;3.90;99.90;;;;;;5092025;28;20036;-74
2022/04/09 02:04:28;;;;;;;12.23;2.70;;;3.90;99.90;;;;;;5094508;28;20093;-74
2022/04/09 02:06:54;;;;;;;7.57;2.70;;;3.90;99.90;;;;;;5094278;28;20035;-74
2022/04/09 02:09:20;;;;;;;9.27;2.00;;;3.80;99.90;;;;;;5096626;28;20026;-74
2022/04/09 02:11:45;;;;;;;10.75;2.63;;;3.80;99.90;;;;;;5092513;28;20710;-74
2022/04/09 02:14:12;;;;;;;6.15;2.17;;;3.80;99.90;;;;;;5095224;28;20115;-74
2022/04/09 02:16:38;;;;;;;11.02;2.65;;;3.80;99.90;;;;;;5095347;28;20098;-74
2022/04/09 02:19:04;;;;;;;12.30;2.50;;;3.80;99.90;;;;;;5101335;28;20494;-74
2022/04/09 02:21:30;;;;;;;14.90;2.70;;;3.80;99.90;;;;;;5097880;28;20046;-74
2022/04/09 02:23:56;;;;;;;14.73;2.78;;;3.70;99.90;;;;;;5099444;28;20027;-74
2022/04/09 02:26:21;;;;;;;10.57;2.63;;;3.70;99.90;;;;;;5093479;28;20036;-74
2022/04/09 02:28:49;;;;;;;9.02;2.17;;;3.70;99.90;;;;;;5093840;28;20112;-74
2022/04/09 02:31:17;;;;;;;13.05;2.40;;;3.70;99.90;;;;;;5088361;28;20036;-74
2022/04/09 02:33:46;;;;;;;10.05;2.20;;;3.80;99.90;;;;;;5097887;28;20027;-73
2022/04/09 02:36:13;;;;;;;8.77;2.40;;;3.80;99.90;;;;;;5098129;28;20030;-74
2022/04/09 02:38:42;;;;;;;11.60;2.47;;;3.80;99.90;;;;;;5093554;28;20024;-74
2022/04/09 02:41:09;;;;;;;12.80;2.13;;;3.80;99.90;;;;;;5090171;28;20042;-74
2022/04/09 02:43:40;;;;;;;10.60;2.10;;;3.80;99.90;;;;;;5087024;28;20024;-73
2022/04/09 02:46:06;;;;;;;11.40;2.15;;;3.80;99.90;;;;;;5092391;28;20044;-74
2022/04/09 02:48:31;;;;;;;8.90;2.35;;;3.80;99.90;;;;;;5089194;28;20549;-74
2022/04/09 02:50:57;;;;;;;15.02;2.40;;;3.80;99.90;;;;;;5093349;28;20095;-74
2022/04/09 02:53:22;;;;;;;16.13;3.10;;;3.80;99.90;;;;;;5096790;28;20024;-74
2022/04/09 02:55:48;;;;;;;11.95;2.78;;;3.80;99.90;;;;;;5088272;28;20068;-73
2022/04/09 02:58:14;;;;;;;10.60;2.63;;;3.90;99.90;;;;;;5096089;28;20053;-74
2022/04/09 03:00:40;;;;;;;11.27;2.78;;;3.90;99.90;;;;;;5092034;28;20093;-74
2022/04/09 03:03:05;;;;;;;13.13;2.22;;;3.90;99.90;;;;;;5091421;28;20523;-74
2022/04/09 03:05:31;;;;;;;8.55;2.53;;;3.90;99.90;;;;;;5100302;28;20016;-74
2022/04/09 03:07:57;;;;;;;9.82;2.40;;;3.90;99.90;;;;;;5091701;28;20129;-74
2022/04/09 03:10:23;;;;;;;13.68;2.58;;;3.80;99.90;;;;;;5089270;28;20408;-74
2022/04/09 03:12:49;;;;;;;11.77;2.50;;;3.90;99.90;;;;;;5098247;28;20028;-74
2022/04/09 03:15:15;;;;;;;12.77;2.80;;;3.90;99.90;;;;;;5095034;28;20077;-74
2022/04/09 03:17:41;;;;;;;12.68;2.63;;;3.90;99.90;;;;;;5088077;28;20039;-74
2022/04/09 03:20:07;;;;;;;10.90;2.45;;;4.00;99.90;;;;;;5095244;28;20507;-74
2022/04/09 03:22:34;;;;;;;11.02;2.47;;;4.00;99.90;;;;;;5089480;28;20020;-74
2022/04/09 03:25:00;;;;;;;9.13;2.63;;;4.00;99.90;;;;;;5085701;28;20035;-74
2022/04/09 03:27:26;;;;;;;10.15;2.45;;;4.00;99.90;;;;;;5096614;28;20020;-73
2022/04/09 03:29:55;;;;;;;10.80;1.90;;;4.00;99.90;;;;;;5096626;28;20432;-74
2022/04/09 03:32:21;;;;;;;6.93;2.42;;;4.00;99.90;;;;;;5087351;28;20696;-74
2022/04/09 03:34:47;;;;;;;10.50;2.53;;;4.10;99.90;;;;;;5093446;28;20020;-74
2022/04/09 03:37:13;;;;;;;10.80;1.95;;;4.00;99.90;;;;;;5093186;28;20018;-74
2022/04/09 03:39:39;;;;;;;11.15;2.28;;;4.00;99.90;;;;;;5094891;28;20642;-74
2022/04/09 03:42:05;;;;;;;8.55;2.35;;;4.00;99.90;;;;;;5101041;28;20020;-73
2022/04/09 03:44:31;;;;;;;8.98;2.40;;;4.10;99.90;;;;;;5085338;28;20024;-73
2022/04/09 03:47:05;;;;;;;8.73;2.30;;;4.10;99.90;;;;;;5092964;28;20088;-73
2022/04/09 03:49:32;;;;;;;9.10;2.10;;;4.10;99.90;;;;;;5088777;28;20485;-73
2022/04/09 03:51:58;;;;;;;10.13;2.60;;;4.00;99.90;;;;;;5093199;28;20024;-74
2022/04/09 03:54:25;;;;;;;11.07;2.35;;;4.00;99.90;;;;;;5097974;28;20034;-73
2022/04/09 03:56:51;;;;;;;10.02;2.42;;;4.00;99.90;;;;;;5095626;28;20035;-74
2022/04/09 03:59:17;;;;;;;7.32;2.15;;;4.10;99.90;;;;;;5100864;28;20418;-74
2022/04/09 04:01:47;;;;;;;9.35;2.40;;;4.10;99.90;;;;;;5092972;28;20038;-73
2022/04/09 04:04:13;;;;;;;9.38;2.15;;;4.10;99.90;;;;;;5089152;28;20110;-73
2022/04/09 04:06:39;;;;;;;9.18;2.20;;;4.10;99.90;;;;;;5091960;28;20020;-74
2022/04/09 04:09:06;;;;;;;6.43;2.00;;;4.00;99.90;;;;;;5097802;28;20040;-73
2022/04/09 04:11:32;;;;;;;9.02;2.08;;;4.00;99.90;;;;;;5087503;28;20038;-74
2022/04/09 04:13:58;;;;;;;9.55;2.40;;;3.90;99.90;;;;;;5082909;28;20415;-74
2022/04/09 04:16:23;;;;;;;8.40;2.10;;;3.90;99.90;;;;;;5088546;28;20020;-74
2022/04/09 04:18:49;;;;;;;12.35;2.60;;;3.90;99.90;;;;;;5088687;28;20012;-74
2022/04/09 04:21:15;;;;;;;9.90;2.50;;;3.80;99.90;;;;;;5098568;28;20658;-73
2022/04/09 04:23:40;;;;;;;8.73;2.67;;;3.90;99.90;;;;;;5100504;28;20031;-74
2022/04/09 04:26:06;;;;;;;7.40;2.78;;;3.90;99.90;;;;;;5085525;28;20028;-73
2022/04/09 04:28:31;;;;;;;7.28;2.53;;;3.90;99.90;;;;;;5095468;28;20415;-74
2022/04/09 04:30:57;;;;;;;10.10;2.45;;;3.80;99.90;;;;;;5093950;28;20089;-74
2022/04/09 04:33:22;;;;;;;9.27;2.15;;;3.90;99.90;;;;;;5099493;28;20034;-74
2022/04/09 04:35:48;;;;;;;11.40;2.58;;;3.80;99.90;;;;;;5093540;28;20047;-74
2022/04/09 04:38:13;;;;;;;7.32;2.30;;;3.80;99.90;;;;;;5091706;28;20031;-74
2022/04/09 04:40:39;;;;;;;7.70;2.22;;;3.80;99.90;;;;;;5088044;28;20107;-74
2022/04/09 04:43:06;;;;;;;10.43;2.58;;;3.80;99.90;;;;;;5092228;28;20569;-74
2022/04/09 04:45:31;;;;;;;12.50;3.08;;;3.80;99.90;;;;;;5089718;28;21029;-74
2022/04/09 04:47:57;;;;;;;7.38;2.10;;;3.80;99.90;;;;;;5092350;28;20394;-74
2022/04/09 04:50:23;;;;;;;10.15;2.42;;;3.80;99.90;;;;;;5098901;28;20034;-74
2022/04/09 04:52:49;;;;;;;10.35;2.35;;;3.80;99.90;;;;;;5090834;28;20039;-74
2022/04/09 04:55:15;;;;;;;8.63;2.65;;;3.80;99.90;;;;;;5093921;28;20427;-73
2022/04/09 04:57:42;;;;;;;9.70;2.78;;;3.80;99.90;;;;;;5096421;28;20035;-73
2022/04/09 05:00:08;;;;;;;10.05;2.78;;;3.90;99.90;;;;;;5091925;28;20430;-72
2022/04/09 05:02:34;;;;;;;7.95;2.40;;;3.80;99.90;;;;;;5090689;28;20023;-72
2022/04/09 05:05:01;;;;;;;14.20;3.10;;;3.80;99.90;;;;;;5087358;28;20073;-72
2022/04/09 05:07:46;;;;;;;8.20;2.70;;;3.80;99.90;;;;;;5093209;28;20116;-72
2022/04/09 05:10:14;;;;;;;6.70;2.55;;;3.70;99.90;;;;;;5093101;28;20039;-72
2022/04/09 05:12:41;;;;;;;7.15;2.40;;;3.70;99.90;;;;;;5094293;28;20077;-72
2022/04/09 05:15:09;;;;;;;6.85;2.30;;;3.70;99.90;;;;;;5088446;28;20051;-72
2022/04/09 05:17:35;;;;;;;9.25;2.70;;;3.70;99.90;;;;;;5093085;28;20032;-70
2022/04/09 05:20:02;;;;;;;12.15;3.20;;;3.70;99.90;;;;;;5090561;28;20475;-70
2022/04/09 05:22:28;;;;;;;12.02;2.80;;;3.80;99.90;;;;;;5099970;28;20436;-70
2022/04/09 05:24:55;;;;;;;7.18;2.70;;;3.80;99.90;;;;;;5084446;28;20165;-70
2022/04/09 05:27:21;;;;;;;13.20;3.15;;;3.80;99.90;;;;;;5089861;28;20361;-71
2022/04/09 05:29:47;;;;;;;11.68;3.25;;;3.90;99.90;;;;;;4745154;28;9999840;-71
2022/04/09 05:32:13;;;;;;;8.52;2.80;;;3.90;99.90;;;;;;5094463;28;20050;-71
2022/04/09 05:34:38;;;;;;;9.63;2.60;;;3.90;99.90;;;;;;5091457;28;20024;-71
2022/04/09 05:37:05;;;;;;;6.88;2.40;;;3.90;99.90;;;;;;5094389;28;20020;-71
2022/04/09 05:39:31;;;;;;;7.07;2.40;;;4.00;99.90;;;;;;5088081;28;20027;-71
2022/04/09 05:41:56;;;;;;;6.38;2.40;;;4.00;99.90;;;;;;5090412;28;20140;-71
2022/04/09 05:44:22;;;;;;;10.68;2.30;;;4.00;99.90;;;;;;5088680;28;20035;-71
2022/04/09 05:46:47;;;;;;;6.97;2.08;;;4.10;99.90;;;;;;5088633;28;20235;-71
2022/04/09 05:49:13;;;;;;;7.28;2.58;;;4.10;99.90;;;;;;5089399;28;20158;-71
2022/04/09 05:51:38;;;;;;;10.43;3.15;;;4.10;99.90;;;;;;5092006;28;20064;-71
2022/04/09 05:54:04;;;;;;;6.97;2.42;;;4.20;99.90;;;;;;5088811;28;20734;-71
2022/04/09 05:56:30;;;;;;;9.23;2.60;;;4.20;99.90;;;;;;5091224;28;20048;-71
2022/04/09 05:58:56;;;;;;;10.05;2.60;;;4.20;99.90;;;;;;5089642;28;20101;-71
2022/04/09 06:01:21;;;;;;;7.80;2.65;;;4.30;99.90;;;;;;5099006;28;20036;-71
2022/04/09 06:03:47;;;;;;;8.40;2.60;;;4.20;99.90;;;;;;5095060;28;20247;-71
2022/04/09 06:06:12;;;;;;;8.98;2.65;;;4.30;99.90;;;;;;5094454;28;20028;-71
2022/04/09 06:08:39;;;;;;;4.22;2.00;;;4.30;99.90;;;;;;5094033;28;20060;-71
2022/04/09 06:11:05;;;;;;;5.50;2.22;;;4.40;99.90;;;;;;5089073;28;20047;-71
2022/04/09 06:13:31;;;;;;;4.45;1.70;;;4.50;99.90;;;;;;5088261;28;20032;-71
2022/04/09 06:15:58;;;;;;;3.55;1.80;;;4.50;99.90;;;;;;5086098;28;20379;-71
2022/04/09 06:18:23;;;;;;;3.58;2.03;;;4.50;99.90;;;;;;5094800;28;20387;-71
2022/04/09 06:20:49;;;;;;;7.80;2.78;;;4.50;99.90;;;;;;5093248;28;20035;-71
2022/04/09 06:23:15;;;;;;;5.35;2.67;;;4.60;99.90;;;;;;5093419;28;20027;-71
2022/04/09 06:25:40;;;;;;;7.05;2.17;;;4.60;99.90;;;;;;5087223;28;20054;-72
2022/04/09 06:28:08;;;;;;;5.03;2.47;;;4.60;99.90;;;;;;5104323;28;20404;-71
2022/04/09 06:30:33;;;;;;;6.25;2.97;;;4.60;99.90;;;;;;5090178;28;20040;-70
2022/04/09 06:32:59;;;;;;;6.40;2.83;;;4.60;99.90;;;;;;5093534;28;20034;-70
2022/04/09 06:35:25;;;;;;;7.55;2.92;;;4.60;99.90;;;;;;5091166;28;20054;-70
2022/04/09 06:37:50;;;;;;;5.95;3.17;;;4.60;99.90;;;;;;5092780;28;20047;-70
2022/04/09 06:40:17;;;;;;;4.20;2.67;;;4.70;99.90;;;;;;5093260;28;20024;-70
2022/04/09 06:42:43;;;;;;;7.40;2.80;;;4.80;99.90;;;;;;5093040;28;20032;-70
2022/04/09 06:45:10;;;;;;;7.07;2.60;;;4.80;99.90;;;;;;5086642;28;20032;-70
2022/04/09 06:47:37;;;;;;;7.57;2.78;;;4.90;99.90;;;;;;5096248;28;20038;-70
2022/04/09 06:50:11;;;;;;;4.65;2.88;;;5.00;99.90;;;;;;5088855;28;20032;-70
2022/04/09 06:52:37;;;;;;;6.95;3.20;;;5.10;99.90;;;;;;5090476;28;20028;-70
2022/04/09 06:55:04;;;;;;;11.00;5.13;;;5.30;99.90;;;;;;5093537;28;20023;-70
2022/04/09 06:57:30;;;;;;;8.25;3.45;;;5.60;99.90;;;;;;5092001;28;20644;-70
2022/04/09 07:00:00;;;;;;;5.28;2.20;;;5.80;99.90;;;;;;5096311;28;20475;-70
2022/04/09 07:02:25;;;;;;;6.93;2.55;;;5.90;99.90;;;;;;5088202;28;20315;-70
2022/04/09 07:04:51;;;;;;;8.02;2.83;;;5.90;99.90;;;;;;5095373;28;20051;-70
2022/04/09 07:07:23;;;;;;;5.22;2.80;;;5.80;99.90;;;;;;5088333;28;20367;-70
2022/04/09 07:09:49;;;;;;;6.38;2.42;;;5.80;99.90;;;;;;5087870;28;20070;-70
2022/04/09 07:12:16;;;;;;;6.80;3.17;;;5.70;99.90;;;;;;5092053;28;20114;-70
2022/04/09 07:14:42;;;;;;;5.68;2.63;;;5.60;99.90;;;;;;5090222;28;20020;-70
2022/04/09 07:17:07;;;;;;;5.35;3.00;;;5.50;99.90;;;;;;5093722;28;20488;-70
2022/04/09 07:19:33;;;;;;;8.00;3.50;;;5.40;99.90;;;;;;5098161;28;20088;-70
2022/04/09 07:21:59;;;;;;;3.92;2.92;;;5.30;99.90;;;;;;5096301;28;20035;-70
2022/04/09 07:24:24;;;;;;;7.90;3.67;;;5.30;99.90;;;;;;5094503;28;20088;-70
2022/04/09 07:26:50;;;;;;;7.07;3.30;;;5.40;99.90;;;;;;5088952;28;20207;-70
2022/04/09 07:29:16;;;;;;;8.60;3.88;;;5.60;99.90;;;;;;5098383;28;20416;-70
2022/04/09 07:31:42;;;;;;;6.43;3.30;;;5.80;99.90;;;;;;5091033;28;20058;-70
2022/04/09 07:34:07;;;;;;;8.35;3.53;;;6.00;99.90;;;;;;5091751;28;20024;-70
2022/04/09 07:36:33;;;;;;;7.80;3.30;;;6.10;99.90;;;;;;5091223;28;20031;-70
2022/04/09 07:38:59;;;;;;;6.45;3.55;;;6.30;99.90;;;;;;5100885;28;20019;-70
2022/04/09 07:41:24;;;;;;;10.55;3.63;;;6.40;99.90;;;;;;5092711;28;20273;-70
2022/04/09 07:43:50;;;;;;;5.07;3.15;;;6.50;99.90;;;;;;5093243;28;20052;-70
2022/04/09 07:46:15;;;;;;;8.38;3.63;;;6.60;99.90;;;;;;5092821;28;20028;-70
2022/04/09 07:48:41;;;;;;;6.88;3.58;;;6.70;99.90;;;;;;5089032;28;20036;-70
2022/04/09 07:51:07;;;;;;;7.50;3.72;;;6.70;99.90;;;;;;5097838;28;20030;-70
2022/04/09 07:53:32;;;;;;;9.10;4.13;;;6.80;99.90;;;;;;5098635;28;20024;-70
2022/04/09 07:55:58;;;;;;;9.07;3.53;;;6.80;99.90;;;;;;5093358;28;20482;-70
2022/04/09 07:58:24;;;;;;;11.55;3.85;;;6.90;99.90;;;;;;5096719;28;20411;-70
2022/04/09 08:00:50;;;;;;;7.05;3.80;;;7.00;99.90;;;;;;5089858;28;20022;-71
2022/04/09 08:03:15;;;;;;;8.07;3.90;;;6.90;99.90;;;;;;5091261;28;20045;-71
2022/04/09 08:05:42;;;;;;;11.63;4.63;;;6.80;99.90;;;;;;5092030;28;20384;-71
2022/04/09 08:08:08;;;;;;;8.07;3.20;;;6.70;99.90;;;;;;5095977;28;20035;-71
2022/04/09 08:10:34;;;;;;;8.70;3.28;;;6.60;99.90;;;;;;5090357;28;20359;-71
2022/04/09 08:13:01;;;;;;;9.25;2.50;;;6.60;99.90;;;;;;5094380;28;20036;-71
2022/04/09 08:15:26;;;;;;;4.78;2.05;;;6.60;99.90;;;;;;5090805;28;20024;-71
2022/04/09 08:17:56;;;;;;;4.80;1.83;;;6.50;99.90;;;;;;5086521;28;20016;-71
2022/04/09 08:20:22;;;;;;;6.50;2.15;;;6.50;99.90;;;;;;5093430;28;20028;-70
2022/04/09 08:22:49;;;;;;;5.78;1.85;;;6.60;99.90;;;;;;5096041;28;20467;-70
2022/04/09 08:25:15;;;;;;;5.95;1.60;;;6.60;99.90;;;;;;5094379;28;20313;-70
2022/04/09 08:27:43;;;;;;;3.45;1.80;;;6.60;99.90;;;;;;5101592;28;20023;-71
2022/04/09 08:30:10;;;;;;;4.63;2.00;;;6.60;99.90;;;;;;5099596;28;20063;-70
2022/04/09 08:32:36;;;;;;;4.65;1.90;;;6.70;99.90;;;;;;5086846;28;20421;-71
2022/04/09 08:35:03;;;;;;;6.05;2.10;;;6.90;99.90;;;;;;5090733;28;20024;-70
2022/04/09 08:37:29;;;;;;;7.47;2.55;;;7.10;99.90;;;;;;5095374;28;20024;-70
2022/04/09 08:39:55;;;;;;;5.53;2.17;;;7.30;99.90;;;;;;5091492;28;20106;-70
2022/04/09 08:42:22;;;;;;;5.78;2.38;;;7.30;99.90;;;;;;5089533;28;20035;-71
2022/04/09 08:44:48;;;;;;;6.45;2.80;;;7.30;99.90;;;;;;5088367;28;20038;-71
2022/04/09 08:47:15;;;;;;;8.15;2.83;;;7.30;99.90;;;;;;5089303;28;20152;-70
2022/04/09 08:49:47;;;;;;;7.75;2.60;;;7.30;99.90;;;;;;5095720;28;20111;-71
2022/04/09 08:52:13;;;;;;;5.35;2.40;;;7.20;99.90;;;;;;5089644;28;20027;-70
2022/04/09 08:54:40;;;;;;;6.13;2.30;;;7.30;99.90;;;;;;5086600;28;20503;-71
2022/04/09 08:57:07;;;;;;;7.95;2.85;;;7.60;99.90;;;;;;5088537;28;20257;-70
2022/04/09 08:59:33;;;;;;;3.80;2.17;;;7.80;99.90;;;;;;5084189;28;20498;-70
2022/04/09 09:02:00;;;;;;;8.30;2.90;;;8.00;99.90;;;;;;5090629;28;20358;-70
2022/04/09 09:04:25;;;;;;;5.97;2.40;;;8.00;99.90;;;;;;5087891;28;20049;-70
2022/04/09 09:06:51;;;;;;;6.10;2.35;;;7.90;99.90;;;;;;5090025;28;20038;-70
2022/04/09 09:09:32;;;;;;;4.25;2.33;;;7.90;99.90;;;;;;5088036;28;20143;-70
2022/04/09 09:12:02;;;;;;;5.90;2.75;;;7.70;99.90;;;;;;5092235;28;20040;-71
2022/04/09 09:14:32;;;;;;;8.30;2.97;;;7.70;99.90;;;;;;5084383;28;20039;-71
2022/04/09 09:17:00;;;;;;;8.05;2.72;;;7.70;99.90;;;;;;5097301;28;20031;-71
2022/04/09 09:19:46;;;;;;;6.45;3.15;;;7.90;99.90;;;;;;5092905;28;20093;-69
2022/04/09 09:22:12;;;;;;;7.15;2.88;;;8.20;99.90;;;;;;5092513;28;20028;-69
2022/04/09 09:24:38;;;;;;;11.32;3.28;;;8.50;99.90;;;;;;5089053;28;20039;-69
2022/04/09 09:27:05;;;;;;;8.35;2.60;;;8.80;99.90;;;;;;5092077;28;20020;-69
2022/04/09 09:29:32;;;;;;;6.57;2.75;;;8.80;99.90;;;;;;5096953;28;20051;-69
2022/04/09 09:31:59;;;;;;;6.15;3.10;;;;;;;;;;5097329;28;20453;-69
2022/04/09 09:34:25;;;;;;;7.68;2.33;;;9.00;99.90;;;;;;5092472;28;20039;-72
2022/04/09 09:36:52;;;;;;;9.93;3.47;;;;;;;;;;5091017;28;20050;-73
2022/04/09 09:39:22;;;;;;;7.95;2.22;;;9.00;99.90;;;;;;5093458;28;20034;-69
2022/04/09 09:41:55;;;;;;;8.60;2.83;;;;;;;;;;5096070;28;20024;-71
2022/04/09 09:44:23;;;;;;;11.85;2.85;;;8.80;99.90;;;;;;5093378;28;20035;-71
2022/04/09 09:46:51;;;;;;;9.00;3.58;;;8.60;99.90;;;;;;5088253;28;20031;-71
2022/04/09 09:49:18;;;;;;;11.85;3.30;;;8.30;99.90;;;;;;5094796;28;20028;-70
2022/04/09 09:51:44;;;;;;;10.23;3.13;;;8.40;99.90;;;;;;5090440;28;20062;-70
2022/04/09 09:54:12;;;;;;;8.20;2.92;;;8.50;99.90;;;;;;5096743;28;20035;-71
2022/04/09 09:56:42;;;;;;;9.32;2.67;;;8.70;99.90;;;;;;5089052;28;20028;-70
2022/04/09 09:59:15;;;;;;;5.28;1.83;;;8.90;99.90;;;;;;5092100;28;22222;-69
2022/04/09 10:01:43;;;;;;;5.60;2.08;;;9.10;99.90;;;;;;5093540;28;20031;-70
2022/04/09 10:04:13;;;;;;;4.40;1.90;;;9.30;99.90;;;;;;5086948;28;20085;-70
2022/04/09 10:06:42;;;;;;;8.20;2.50;;;9.70;99.90;;;;;;5090703;28;20024;-71
2022/04/09 10:09:08;;;;;;;4.38;1.67;;;9.80;99.90;;;;;;5094829;28;20024;-71
2022/04/09 10:11:36;;;;;;;4.93;2.13;;;9.80;99.90;;;;;;5091396;28;20119;-71
2022/04/09 10:14:05;;;;;;;5.78;2.10;;;9.60;99.90;;;;;;5088556;28;20040;-71
2022/04/09 10:16:34;;;;;;;6.10;2.10;;;9.40;99.90;;;;;;5097174;28;20153;-71
2022/04/09 10:19:02;;;;;;;3.90;1.80;;;9.10;99.90;;;;;;5107361;28;20019;-71
2022/04/09 10:21:29;;;;;;;8.30;2.08;;;8.80;99.90;;;;;;5099667;28;20024;-71
2022/04/09 10:23:57;;;;;;;3.78;2.03;;;8.60;99.90;;;;;;5085466;28;20028;-70
2022/04/09 10:26:24;;;;;;;3.63;1.70;;;8.40;99.90;;;;;;5095140;28;20059;-72
2022/04/09 10:28:51;;;;;;;2.47;1.80;;;8.40;99.90;;;;;;5091096;28;20543;-71
2022/04/09 10:31:23;;;;;;;4.75;2.30;;;8.70;99.90;;;;;;5091357;28;20032;-71
2022/04/09 10:33:55;;;;;;;6.10;2.05;;;9.20;99.90;;;;;;5086895;28;20019;-71
2022/04/09 10:36:42;;;;;;;4.80;1.98;;;9.50;99.90;;;;;;5089012;28;20055;-72
2022/04/09 10:42:45;;;;;;;4.15;2.10;;;9.80;99.90;;;;;;5079444;28;20028;-72
2022/04/09 10:45:10;;;;;;;5.20;2.40;;;9.80;99.90;;;;;;5085836;28;20107;-73
2022/04/09 10:48:08;;;;;;;4.40;2.35;;;9.70;99.90;;;;;;5089507;28;20194;-72
2022/04/09 10:50:54;;;;;;;7.20;2.90;;;9.70;99.90;;;;;;5090441;28;20020;-72
2022/04/09 10:53:24;;;;;;;5.72;1.90;;;10.10;99.90;;;;;;5090700;28;20032;-73
2022/04/09 10:56:15;;;;;;;5.82;2.50;;;10.20;99.90;;;;;;5091229;28;20020;-72
2022/04/09 10:59:28;;;;;;;9.30;3.20;;;10.20;99.90;;;;;;5094388;28;20019;-73
2022/04/09 11:01:55;;;;;;;7.32;2.40;;;10.40;99.90;;;;;;5094311;28;20615;-72
2022/04/09 11:04:27;;;;;;;7.72;2.30;;;10.30;99.90;;;;;;5093772;28;20103;-71
2022/04/09 11:07:14;;;;;;;8.35;3.10;;;10.10;99.90;;;;;;5092558;28;20408;-71
2022/04/09 11:09:52;;;;;;;6.38;2.70;;;9.80;99.90;;;;;;5089455;28;20040;-71
2022/04/09 11:12:31;;;;;;;12.27;5.40;;;9.60;99.90;;;;;;5094641;28;20036;-71
2022/04/09 11:14:59;;;;;;;7.45;3.67;;;9.40;99.90;;;;;;5089669;28;20036;-71
2022/04/09 11:17:39;;;;;;;6.93;2.60;;;9.40;99.90;;;;;;5091727;28;20023;-71
2022/04/09 11:20:11;;;;;;;6.93;2.30;;;9.50;99.90;;;;;;5094388;28;20111;-71
2022/04/09 11:22:40;;;;;;;7.57;2.45;;;9.40;99.90;;;;;;5090918;28;20024;-70
2022/04/09 11:25:21;;;;;;;4.60;1.30;;;9.50;99.90;;;;;;5091321;28;20074;-71
2022/04/09 11:27:48;;;;;;;2.97;1.35;;;9.70;99.90;;;;;;5088424;28;20479;-72
2022/04/09 11:30:14;;;;;;;4.18;1.80;;;9.80;99.90;;;;;;5094120;28;20078;-76
2022/04/09 11:32:40;;;;;;;3.45;2.03;;;9.90;99.90;;;;;;5092000;28;20740;-73
2022/04/09 11:35:12;;;;;;;4.28;2.03;;;9.90;99.90;;;;;;5091495;28;20035;-70
2022/04/09 11:37:43;;;;;;;4.60;2.07;;;10.10;99.90;;;;;;5087187;28;20024;-70
2022/04/09 11:40:11;;;;;;;4.78;2.33;;;10.30;99.90;;;;;;5090888;28;20020;-70
2022/04/09 11:42:44;;;;;;;9.60;4.10;;;10.30;99.90;;;;;;5090313;28;20413;-71
2022/04/09 11:45:33;;;;;;;7.53;2.47;;;10.40;99.90;;;;;;5092081;28;20476;-71
2022/04/09 11:48:00;;;;;;;5.75;2.30;;;;;;;;;;5088302;28;20036;-70
2022/04/09 11:50:30;;;;;;;8.20;3.63;;;10.80;98.80;;;;;;5091269;28;20050;-70
2022/04/09 11:52:57;;;;;;;12.15;4.15;;;10.80;99.00;;;;;;5087149;28;20424;-68
2022/04/09 11:55:23;;;;;;;11.18;4.78;;;;;;;;;;5086404;28;20077;-71
2022/04/09 11:57:49;;;;;;;14.20;5.78;;;10.40;98.60;;;;;;5090037;28;20091;-69
2022/04/09 12:00:16;;;;;;;4.15;2.00;;;;;;;;;;5088854;28;20028;-69
2022/04/09 12:02:42;;;;;;;7.00;2.10;;;;;;;;;;5096702;28;20028;-72
2022/04/09 12:05:12;;;;;;;7.65;2.50;;;10.50;95.30;;;;;;5102119;28;20459;-71
2022/04/09 12:07:48;;;;;;;4.60;2.00;;;9.90;99.90;;;;;;5093534;28;20023;-70
2022/04/09 12:10:23;;;;;;;7.07;1.95;;;;;;;;;;5092758;28;20085;-71
2022/04/09 12:12:59;;;;;;;2.25;1.40;;;8.80;99.90;;;;;;5097392;28;20058;-71
2022/04/09 12:15:32;;;;;;;4.20;1.40;;;;;;;;;;5090898;28;20043;-71
2022/04/09 12:18:06;;;;;;;3.03;1.45;;;8.20;99.90;;;;;;5097910;28;20141;-71
2022/04/09 12:20:33;;;;;;;1.60;1.10;;;;;;;;;;5090997;28;20020;-71
2022/04/09 12:23:00;;;;;;;2.15;0.80;;;7.80;99.90;;;;;;5091372;28;20074;-71
2022/04/09 12:25:42;;;;;;;3.20;2.70;;;7.50;99.90;;;;;;5090231;28;20058;-70
2022/04/09 12:28:37;;;;;;;4.75;2.58;;;7.30;99.90;;;;;;5092913;28;20381;-74
2022/04/09 12:31:07;;;;;;;6.43;2.60;;;;;;;;;;5078005;28;20036;-72
2022/04/09 12:33:33;;;;;;;3.03;2.03;;;6.80;99.90;;;;;;5092373;28;20103;-77
2022/04/09 12:36:07;;;;;;;3.40;2.33;;;6.80;99.90;;;;;;5097214;28;20028;-73
2022/04/09 12:38:34;;;;;;;2.38;1.15;;;;;;;;;;5089287;28;20028;-72
2022/04/09 12:41:01;;;;;;;3.97;2.15;;;;;;;;;;5094022;28;20028;-70
2022/04/09 12:43:40;;;;;;;3.17;1.60;;;;;;;;;;5088916;28;20027;-71
2022/04/09 12:46:11;;;;;;;4.38;1.40;;;6.70;99.90;;;;;;5086413;28;20034;-70
2022/04/09 12:48:42;;;;;;;2.92;1.13;;;6.80;99.90;;;;;;5087705;28;20031;-70
2022/04/09 12:51:09;;;;;;;2.70;1.42;;;6.80;99.90;;;;;;5097369;28;20040;-70
2022/04/09 12:53:34;;;;;;;2.35;1.00;;;6.90;99.90;;;;;;5098082;28;20491;-67
2022/04/09 12:56:04;;;;;;;5.18;2.13;;;6.90;99.90;;;;;;5094922;28;20042;-70
2022/04/09 12:58:31;;;;;;;3.50;1.15;;;7.00;99.90;;;;;;5100243;28;20020;-71
2022/04/09 13:00:57;;;;;;;3.78;1.00;;;7.20;99.90;;;;;;5099583;28;23155;-71
2022/04/09 13:03:22;;;;;;;3.05;1.20;;;7.60;99.90;;;;;;5090331;28;20089;-70
2022/04/09 13:05:48;;;;;;;3.90;1.50;;;8.00;99.90;;;;;;5088181;28;20032;-71